TimeCST,TemperatureF,Dew PointF,Humidity,Sea Level PressureIn,VisibilityMPH,Wind Direction,Wind SpeedMPH,Gust SpeedMPH,PrecipitationIn,Events,Conditions,WindDirDegrees,DateUTC
12:11 AM,46.4,33.8,62,30.23,10.0,South,13.8,18.4,N/A,,Overcast,170,2012-11-18 06:11:00
12:31 AM,46.4,33.8,62,30.22,10.0,SSE,13.8,-,N/A,,Overcast,160,2012-11-18 06:31:00
12:51 AM,44.6,33.8,66,30.22,10.0,SSE,13.8,19.6,N/A,,Overcast,160,2012-11-18 06:51:00
1:11 AM,44.6,33.8,66,30.21,10.0,SSE,12.7,-,N/A,,Overcast,160,2012-11-18 07:11:00
1:31 AM,44.6,32.0,61,30.21,10.0,SSE,15.0,-,N/A,,Overcast,160,2012-11-18 07:31:00
1:51 AM,44.6,32.0,61,30.21,10.0,SSE,12.7,18.4,N/A,,Overcast,160,2012-11-18 07:51:00
2:11 AM,44.6,32.0,61,30.21,10.0,South,12.7,19.6,N/A,,Overcast,170,2012-11-18 08:11:00
2:31 AM,44.6,32.0,61,30.20,10.0,SSE,13.8,-,N/A,,Overcast,160,2012-11-18 08:31:00
2:51 AM,44.6,32.0,61,30.20,10.0,SSE,13.8,-,N/A,,Overcast,160,2012-11-18 08:51:00
3:11 AM,42.8,32.0,66,30.20,10.0,SSE,12.7,-,N/A,,Overcast,160,2012-11-18 09:11:00
3:31 AM,42.8,32.0,66,30.19,10.0,SSE,12.7,19.6,N/A,,Overcast,160,2012-11-18 09:31:00
3:51 AM,42.8,30.2,61,30.18,10.0,SSE,10.4,-,N/A,,Overcast,160,2012-11-18 09:51:00
4:11 AM,42.8,30.2,61,30.18,10.0,SSE,11.5,-,N/A,,Overcast,160,2012-11-18 10:11:00
4:31 AM,42.8,30.2,61,30.17,10.0,SSE,13.8,-,N/A,,Mostly Cloudy,160,2012-11-18 10:31:00
4:51 AM,42.8,30.2,61,30.17,10.0,SSE,12.7,-,N/A,,Mostly Cloudy,160,2012-11-18 10:51:00
5:11 AM,42.8,30.2,61,30.17,10.0,SSE,11.5,-,N/A,,Overcast,160,2012-11-18 11:11:00
5:31 AM,42.8,30.2,61,30.16,10.0,South,11.5,-,N/A,,Overcast,170,2012-11-18 11:31:00
5:51 AM,41.0,30.2,65,30.16,10.0,SSE,13.8,-,N/A,,Mostly Cloudy,160,2012-11-18 11:51:00
6:11 AM,41.0,30.2,65,30.15,10.0,South,11.5,-,N/A,,Scattered Clouds,170,2012-11-18 12:11:00
6:31 AM,39.2,30.2,70,30.15,10.0,SSE,12.7,-,N/A,,Clear,160,2012-11-18 12:31:00
6:51 AM,39.2,30.2,70,30.15,10.0,SSE,9.2,-,N/A,,Clear,160,2012-11-18 12:51:00
7:11 AM,39.2,30.2,70,30.15,10.0,SSE,10.4,-,N/A,,Clear,160,2012-11-18 13:11:00
7:31 AM,39.2,30.2,70,30.15,10.0,SSE,10.4,-,N/A,,Clear,160,2012-11-18 13:31:00
7:51 AM,39.2,30.2,70,30.16,10.0,SSE,10.4,-,N/A,,Clear,160,2012-11-18 13:51:00
8:11 AM,39.2,30.2,70,30.16,10.0,South,13.8,-,N/A,,Clear,170,2012-11-18 14:11:00
8:31 AM,39.2,30.2,70,30.16,7.0,South,11.5,-,N/A,,Clear,170,2012-11-18 14:31:00
8:51 AM,41.0,30.2,65,30.15,10.0,SSE,13.8,-,N/A,,Clear,160,2012-11-18 14:51:00
9:11 AM,42.8,30.2,61,30.15,10.0,South,12.7,-,N/A,,Clear,170,2012-11-18 15:11:00
9:31 AM,44.6,30.2,57,30.15,10.0,South,12.7,20.7,N/A,,Clear,170,2012-11-18 15:31:00
9:51 AM,46.4,30.2,53,30.15,10.0,South,10.4,20.7,N/A,,Clear,190,2012-11-18 15:51:00
10:11 AM,46.4,30.2,53,30.14,10.0,South,13.8,20.7,N/A,,Clear,190,2012-11-18 16:11:00
10:31 AM,48.2,30.2,50,30.14,10.0,South,13.8,20.7,N/A,,Clear,180,2012-11-18 16:31:00
10:51 AM,51.8,32.0,47,30.14,10.0,South,12.7,18.4,N/A,,Clear,170,2012-11-18 16:51:00
11:11 AM,51.8,30.2,44,30.13,10.0,South,18.4,-,N/A,,Clear,180,2012-11-18 17:11:00
11:31 AM,53.6,30.2,41,30.12,10.0,South,12.7,24.2,N/A,,Clear,180,2012-11-18 17:31:00
11:51 AM,55.4,30.2,38,30.11,10.0,South,17.3,25.3,N/A,,Clear,190,2012-11-18 17:51:00
12:11 PM,55.4,30.2,38,30.11,10.0,South,15.0,21.9,N/A,,Clear,180,2012-11-18 18:11:00
12:31 PM,55.4,30.2,38,30.10,10.0,South,11.5,23.0,N/A,,Clear,180,2012-11-18 18:31:00
12:51 PM,57.2,30.2,36,30.10,10.0,South,17.3,20.7,N/A,,Clear,180,2012-11-18 18:51:00
1:11 PM,57.2,30.2,36,30.09,10.0,South,16.1,23.0,N/A,,Clear,190,2012-11-18 19:11:00
1:31 PM,57.2,30.2,36,30.09,10.0,South,12.7,26.5,N/A,,Clear,190,2012-11-18 19:31:00
1:51 PM,57.2,30.2,36,30.09,10.0,South,17.3,23.0,N/A,,Clear,180,2012-11-18 19:51:00
2:11 PM,55.4,32.0,41,30.08,10.0,South,16.1,24.2,N/A,,Clear,170,2012-11-18 20:11:00
2:31 PM,57.2,30.2,36,30.08,10.0,South,15.0,21.9,N/A,,Clear,180,2012-11-18 20:31:00
2:51 PM,57.2,30.2,36,30.08,10.0,South,18.4,25.3,N/A,,Clear,180,2012-11-18 20:51:00
3:11 PM,55.4,32.0,41,30.09,10.0,South,13.8,21.9,N/A,,Clear,170,2012-11-18 21:11:00
3:31 PM,55.4,32.0,41,30.09,10.0,South,17.3,26.5,N/A,,Clear,170,2012-11-18 21:31:00
3:51 PM,55.4,32.0,41,30.10,10.0,South,16.1,25.3,N/A,,Clear,170,2012-11-18 21:51:00
4:11 PM,53.6,33.8,47,30.10,10.0,South,15.0,20.7,N/A,,Clear,170,2012-11-18 22:11:00
4:31 PM,53.6,33.8,47,30.10,10.0,SSE,15.0,20.7,N/A,,Clear,160,2012-11-18 22:31:00
4:51 PM,53.6,33.8,47,30.11,10.0,South,13.8,-,N/A,,Clear,170,2012-11-18 22:51:00
5:11 PM,51.8,33.8,50,30.11,10.0,South,12.7,19.6,N/A,,Clear,170,2012-11-18 23:11:00
5:31 PM,51.8,33.8,50,30.11,10.0,South,11.5,17.3,N/A,,Clear,170,2012-11-18 23:31:00
5:50 PM,51.8,33.8,50,30.11,10.0,SSE,12.7,-,N/A,,Clear,160,2012-11-18 23:50:00
6:11 PM,50.0,33.8,54,30.11,10.0,SSE,11.5,-,N/A,,Clear,160,2012-11-19 00:11:00
6:31 PM,48.2,33.8,58,30.11,10.0,SSE,12.7,-,N/A,,Clear,160,2012-11-19 00:31:00
6:50 PM,48.2,33.8,58,30.11,10.0,SSE,16.1,-,N/A,,Clear,160,2012-11-19 00:50:00
7:11 PM,48.2,33.8,58,30.11,10.0,SSE,13.8,-,N/A,,Clear,160,2012-11-19 01:11:00
7:31 PM,48.2,33.8,58,30.11,10.0,South,12.7,18.4,N/A,,Clear,170,2012-11-19 01:31:00
7:50 PM,48.2,33.8,58,30.11,10.0,South,12.7,-,N/A,,Clear,170,2012-11-19 01:50:00
8:11 PM,48.2,33.8,58,30.11,10.0,South,13.8,19.6,N/A,,Clear,170,2012-11-19 02:11:00
8:31 PM,48.2,33.8,58,30.11,10.0,South,11.5,19.6,N/A,,Clear,170,2012-11-19 02:31:00
8:50 PM,48.2,33.8,58,30.12,10.0,SSE,11.5,18.4,N/A,,Clear,160,2012-11-19 02:50:00
9:11 PM,46.4,33.8,62,30.12,10.0,SSE,10.4,-,N/A,,Scattered Clouds,160,2012-11-19 03:11:00
9:31 PM,46.4,33.8,62,30.12,10.0,SSE,10.4,-,N/A,,Scattered Clouds,160,2012-11-19 03:31:00
9:50 PM,46.4,33.8,62,30.12,10.0,SSE,10.4,17.3,N/A,,Scattered Clouds,160,2012-11-19 03:50:00
10:31 PM,46.4,33.8,62,30.12,10.0,South,9.2,-,N/A,,Scattered Clouds,170,2012-11-19 04:31:00
11:11 PM,46.4,33.8,62,30.11,10.0,SSE,8.1,-,N/A,,Overcast,160,2012-11-19 05:11:00
11:31 PM,48.2,33.8,58,30.11,10.0,South,6.9,-,N/A,,Overcast,170,2012-11-19 05:31:00
11:51 PM,48.2,33.8,58,30.11,10.0,South,10.4,-,N/A,,Overcast,170,2012-11-19 05:51:00